Time;durP1;ratioP1;P1;durP2;ratioP2;P2;SDS_P1;SDS_P2;PMS_P1;PMS_P2;Temp;Humidity;BMP_temperature;BMP_pressure;BME280_temperature;BME280_humidity;BME280_pressure;Samples;Min_cycle;Max_cycle;Signal;HPM_P1;HPM_P2
2021/08/31 00:01:16;;;;;;;11.60;9.23;;;;;;;14.55;100.00;99617.78;1776878;79;20997;-84
2021/08/31 00:03:47;;;;;;;10.50;8.38;;;;;;;14.55;100.00;99619.11;1780465;79;21060;-82
2021/08/31 00:06:14;;;;;;;10.70;8.00;;;;;;;14.51;100.00;99617.25;1777324;79;21539;-84
2021/08/31 00:08:39;;;;;;;10.70;6.95;;;;;;;14.48;100.00;99612.22;1803912;79;21491;-84
2021/08/31 00:11:05;;;;;;;8.45;6.65;;;;;;;14.46;100.00;99614.19;1808969;79;20993;-82
2021/08/31 00:13:31;;;;;;;8.35;7.05;;;;;;;14.47;100.00;99613.69;1808918;78;21013;-83
2021/08/31 00:15:57;;;;;;;7.87;5.87;;;;;;;14.45;100.00;99613.85;1792484;79;21045;-84
2021/08/31 00:18:23;;;;;;;7.22;5.22;;;;;;;14.44;100.00;99616.14;1774764;80;20979;-84
2021/08/31 00:20:49;;;;;;;6.50;5.25;;;;;;;14.41;100.00;99603.67;1763916;80;21046;-82
2021/08/31 00:23:15;;;;;;;5.35;4.45;;;;;;;14.40;100.00;99611.31;1757733;81;20973;-82
2021/08/31 00:25:41;;;;;;;6.95;5.17;;;;;;;14.38;100.00;99614.59;1765777;80;20960;-83
2021/08/31 00:28:07;;;;;;;6.25;4.87;;;;;;;14.36;100.00;99612.11;1777819;80;20990;-82
2021/08/31 00:30:33;;;;;;;5.35;4.45;;;;;;;14.35;100.00;99610.45;1783102;80;21473;-84
2021/08/31 00:32:59;;;;;;;8.63;5.70;;;;;;;14.34;100.00;99615.39;1783151;80;20926;-85
2021/08/31 00:35:25;;;;;;;5.83;4.60;;;;;;;14.35;100.00;99620.23;1779581;79;20938;-84
2021/08/31 00:37:51;;;;;;;15.28;12.30;;;;;;;14.35;100.00;99621.56;1784052;79;21041;-84
2021/08/31 00:40:17;;;;;;;5.58;4.80;;;;;;;14.36;100.00;99623.22;1782097;80;21038;-82
2021/08/31 00:42:43;;;;;;;5.28;4.10;;;;;;;14.35;100.00;99618.91;1783018;80;20954;-82
2021/08/31 00:45:09;;;;;;;5.83;4.10;;;;;;;14.36;100.00;99627.20;1777374;80;21070;-82
2021/08/31 00:47:36;;;;;;;4.60;3.72;;;;;;;14.36;100.00;99620.57;1778841;79;22522;-82
2021/08/31 00:50:04;;;;;;;7.08;4.72;;;;;;;14.38;100.00;99623.88;1770105;79;21069;-81
2021/08/31 00:52:30;;;;;;;4.60;4.08;;;;;;;14.39;100.00;99626.41;1783760;79;21484;-82
2021/08/31 00:54:57;;;;;;;6.78;4.97;;;;;;;14.41;100.00;99620.92;1786738;79;20958;-84
2021/08/31 00:57:23;;;;;;;6.78;4.10;;;;;;;14.42;100.00;99612.00;1785596;79;20987;-82
2021/08/31 00:59:50;;;;;;;5.33;4.60;;;;;;;14.43;100.00;99618.97;1782694;80;20995;-82
2021/08/31 01:02:16;;;;;;;5.78;5.00;;;;;;;14.43;100.00;99614.98;1782321;80;20987;-82
2021/08/31 01:04:41;;;;;;;5.72;4.42;;;;;;;14.44;100.00;99612.16;1784160;80;20973;-82
2021/08/31 01:07:08;;;;;;;5.08;3.80;;;;;;;14.43;100.00;99611.83;1784346;80;20982;-82
2021/08/31 01:09:35;;;;;;;5.45;4.10;;;;;;;14.44;100.00;99615.31;1783489;80;21437;-82
2021/08/31 01:12:01;;;;;;;6.53;3.72;;;;;;;14.45;100.00;99617.00;1778170;79;21014;-82
2021/08/31 01:14:28;;;;;;;4.87;3.90;;;;;;;14.46;100.00;99608.88;1776888;79;21040;-82
2021/08/31 01:16:54;;;;;;;3.62;3.10;;;;;;;14.46;100.00;99618.66;1776427;81;21052;-83
2021/08/31 01:19:30;;;;;;;4.30;3.30;;;;;;;14.44;100.00;99624.11;1779044;79;20974;-82
2021/08/31 01:21:59;;;;;;;4.37;3.08;;;;;;;14.44;100.00;99620.13;1775609;80;21085;-83
2021/08/31 01:24:27;;;;;;;3.20;2.85;;;;;;;14.44;100.00;99621.45;1776827;81;21029;-83
2021/08/31 01:26:53;;;;;;;4.62;3.77;;;;;;;14.46;100.00;99619.48;1776552;80;21085;-83
2021/08/31 01:29:19;;;;;;;4.00;3.30;;;;;;;14.46;100.00;99625.30;1776795;81;20977;-83
2021/08/31 01:31:45;;;;;;;4.85;3.37;;;;;;;14.45;100.00;99620.48;1776513;81;21483;-83
2021/08/31 01:34:11;;;;;;;3.95;3.02;;;;;;;14.46;100.00;99619.48;1776879;81;21033;-83
2021/08/31 01:36:37;;;;;;;4.97;3.65;;;;;;;14.47;100.00;99617.66;1776592;80;21583;-83
2021/08/31 01:39:05;;;;;;;5.22;3.70;;;;;;;14.50;100.00;99619.55;1776940;79;20958;-83
2021/08/31 01:41:31;;;;;;;4.25;3.27;;;;;;;14.50;100.00;99616.03;1776786;81;21491;-84
2021/08/31 01:43:57;;;;;;;4.45;3.52;;;;;;;14.50;100.00;99614.23;1776738;81;20989;-84
2021/08/31 01:46:23;;;;;;;4.58;3.30;;;;;;;14.51;100.00;99615.93;1769027;79;21026;-84
2021/08/31 01:48:49;;;;;;;5.10;3.72;;;;;;;14.52;100.00;99625.55;1773766;79;20970;-84
2021/08/31 01:51:15;;;;;;;3.55;3.12;;;;;;;14.54;100.00;99616.09;1777001;81;21519;-84
2021/08/31 01:53:41;;;;;;;5.30;3.52;;;;;;;14.53;100.00;99616.59;1776503;81;20986;-84
2021/08/31 01:56:07;;;;;;;3.98;3.45;;;;;;;14.54;100.00;99618.27;1782829;79;20950;-84
2021/08/31 01:58:33;;;;;;;3.02;2.67;;;;;;;14.53;100.00;99621.89;1809006;79;21002;-86
2021/08/31 02:00:59;;;;;;;5.30;3.47;;;;;;;14.54;100.00;99616.09;1809163;78;20981;-85
2021/08/31 02:03:25;;;;;;;5.72;3.40;;;;;;;14.55;100.00;99623.09;1809127;78;20970;-85
2021/08/31 02:05:51;;;;;;;3.35;3.00;;;;;;;14.57;100.00;99614.95;1787276;78;21008;-85
2021/08/31 02:08:17;;;;;;;4.95;3.75;;;;;;;14.58;100.00;99616.61;1789411;79;21017;-84
2021/08/31 02:10:44;;;;;;;5.20;3.25;;;;;;;14.58;100.00;99617.94;1809176;79;21488;-85
2021/08/31 02:13:10;;;;;;;7.40;4.03;;;;;;;14.58;100.00;99608.65;1809027;79;20978;-84
2021/08/31 02:15:37;;;;;;;4.10;3.70;;;;;;;14.58;100.00;99614.81;1800136;79;21509;-84
2021/08/31 02:18:03;;;;;;;4.90;4.25;;;;;;;14.58;100.00;99610.83;1781794;80;21636;-87
2021/08/31 02:20:29;;;;;;;6.90;4.15;;;;;;;14.58;100.00;99612.16;1783228;79;21003;-85
2021/08/31 02:22:55;;;;;;;4.85;3.77;;;;;;;14.58;100.00;99606.85;1809007;79;20938;-87
2021/08/31 02:25:22;;;;;;;4.47;3.92;;;;;;;14.60;100.00;99605.36;1809160;79;21033;-84
2021/08/31 02:27:48;;;;;;;8.45;3.92;;;;;;;14.61;100.00;99601.70;1809094;78;21456;-87
2021/08/31 02:30:14;;;;;;;5.37;3.60;;;;;;;14.60;100.00;99603.53;1809181;78;20989;-87
2021/08/31 02:32:40;;;;;;;4.53;4.12;;;;;;;14.59;100.00;99609.01;1808978;78;21006;-89
2021/08/31 02:35:07;;;;;;;4.03;3.62;;;;;;;14.59;100.00;99601.88;1809328;79;21484;-86
2021/08/31 02:37:33;;;;;;;4.10;3.67;;;;;;;14.59;100.00;99599.72;1788955;79;21008;-86
2021/08/31 02:39:59;;;;;;;4.45;3.15;;;;;;;14.57;100.00;99598.53;1776851;81;20973;-85
2021/08/31 02:42:25;;;;;;;3.85;3.45;;;;;;;14.57;100.00;99597.70;1776607;81;20978;-85
2021/08/31 02:44:51;;;;;;;3.30;3.00;;;;;;;14.57;100.00;99595.05;1775445;80;21033;-86
2021/08/31 02:47:18;;;;;;;4.00;2.92;;;;;;;14.55;100.00;99600.52;1775030;80;21030;-88
2021/08/31 02:49:45;;;;;;;3.72;2.95;;;;;;;14.56;100.00;99598.70;1775268;80;21037;-87
2021/08/31 02:52:11;;;;;;;3.75;2.80;;;;;;;14.56;100.00;99602.67;1775021;81;21034;-88
2021/08/31 02:54:37;;;;;;;4.35;3.02;;;;;;;14.56;100.00;99605.33;1777187;79;21025;-87
2021/08/31 02:57:04;;;;;;;4.72;3.05;;;;;;;14.56;100.00;99601.35;1756712;79;20990;-89
2021/08/31 02:59:30;;;;;;;4.12;2.62;;;;;;;14.54;100.00;99597.50;1777041;80;20994;-87
2021/08/31 03:02:06;;;;;;;3.98;2.80;;;;;;;14.52;100.00;99597.67;1776749;81;21465;-89
2021/08/31 03:04:37;;;;;;;3.10;2.50;;;;;;;14.52;100.00;99597.67;1776889;81;21068;-89
2021/08/31 03:07:09;;;;;;;3.08;2.52;;;;;;;14.51;100.00;99597.34;1775929;80;21096;-88
2021/08/31 03:09:35;;;;;;;3.50;2.90;;;;;;;14.51;100.00;99600.00;1777459;80;21040;-89
2021/08/31 03:12:02;;;;;;;2.87;2.37;;;;;;;14.51;100.00;99603.98;1798083;79;21077;-88
2021/08/31 03:14:29;;;;;;;3.08;2.70;;;;;;;14.50;100.00;99600.11;1808659;79;20934;-89
2021/08/31 03:16:57;;;;;;;2.83;2.47;;;;;;;14.50;100.00;99612.91;1809266;79;21073;-89
2021/08/31 03:19:24;;;;;;;3.77;2.42;;;;;;;14.48;100.00;99604.75;1809309;79;21014;-88
2021/08/31 03:21:53;;;;;;;2.72;2.33;;;;;;;14.47;100.00;99609.20;1809044;79;21018;-88
2021/08/31 03:24:20;;;;;;;2.75;2.45;;;;;;;14.46;100.00;99606.72;1809382;79;20970;-88
2021/08/31 03:26:46;;;;;;;3.92;3.40;;;;;;;14.45;100.00;99607.22;1809174;79;21482;-85
2021/08/31 03:29:13;;;;;;;3.72;2.75;;;;;;;14.45;100.00;99600.58;1789127;78;20998;-87
2021/08/31 03:31:39;;;;;;;3.60;2.70;;;;;;;14.44;100.00;99591.42;1776759;81;21040;-89
2021/08/31 03:34:05;;;;;;;5.45;3.00;;;;;;;14.42;100.00;99594.25;1777069;81;20989;-87
2021/08/31 03:36:31;;;;;;;2.77;2.45;;;;;;;14.43;100.00;99597.73;1777018;80;20954;-89
2021/08/31 03:38:57;;;;;;;4.12;3.50;;;;;;;14.41;100.00;99601.88;1787135;79;21005;-90
2021/08/31 03:41:24;;;;;;;3.30;3.00;;;;;;;14.39;100.00;99598.53;1780941;79;21507;-90
2021/08/31 03:43:50;;;;;;;4.83;2.77;;;;;;;14.40;100.00;99602.84;1777461;80;21441;-88
2021/08/31 03:46:16;;;;;;;2.67;2.30;;;;;;;14.40;100.00;99604.67;1778571;79;21050;-90
2021/08/31 03:48:42;;;;;;;4.47;2.75;;;;;;;14.38;100.00;99603.98;1782111;80;21529;-84
2021/08/31 03:51:08;;;;;;;5.65;2.95;;;;;;;14.37;100.00;99605.80;1782311;80;21011;-89
2021/08/31 03:53:34;;;;;;;3.87;2.77;;;;;;;14.36;100.00;99601.99;1782275;80;21023;-90
2021/08/31 03:56:00;;;;;;;3.70;2.83;;;;;;;14.34;100.00;99603.45;1782497;80;20980;-90
2021/08/31 03:58:26;;;;;;;5.25;2.92;;;;;;;14.34;100.00;99608.77;1782140;80;20973;-87
2021/08/31 04:00:52;;;;;;;4.72;3.05;;;;;;;14.33;100.00;99604.45;1788328;79;21417;-89
2021/08/31 04:03:18;;;;;;;5.47;3.10;;;;;;;14.33;100.00;99603.13;1809415;78;21002;-89
2021/08/31 04:05:45;;;;;;;3.92;2.85;;;;;;;14.32;100.00;99608.10;1809502;79;20989;-89
2021/08/31 04:08:11;;;;;;;3.50;2.37;;;;;;;14.32;100.00;99609.43;1784555;79;20955;-89
2021/08/31 04:10:37;;;;;;;4.03;3.10;;;;;;;14.32;100.00;99605.45;1782275;80;21023;-88
2021/08/31 04:13:07;;;;;;;4.95;2.92;;;;;;;14.33;100.00;99603.63;1800855;79;21033;-89
2021/08/31 04:15:31;;;;;;;3.05;2.67;;;;;;;14.31;100.00;99605.95;1808849;79;21504;-88
2021/08/31 04:17:57;;;;;;;2.45;2.25;;;;;;;14.31;100.00;99609.06;1786449;79;21014;-85
2021/08/31 04:20:23;;;;;;;3.62;2.98;;;;;;;14.31;100.00;99607.27;1793062;79;21317;-87
2021/08/31 04:22:49;;;;;;;4.53;2.52;;;;;;;14.30;100.00;99604.26;1791473;78;20951;-90
2021/08/31 04:25:15;;;;;;;3.40;2.02;;;;;;;14.30;100.00;99608.23;1779439;79;20989;-88
2021/08/31 04:27:41;;;;;;;3.62;2.58;;;;;;;14.30;100.00;99606.08;1776868;81;21045;-89
2021/08/31 04:30:08;;;;;;;2.55;2.22;;;;;;;14.29;100.00;99608.41;1777112;81;20966;-88
2021/08/31 04:32:34;;;;;;;2.80;2.50;;;;;;;14.28;100.00;99604.06;1786827;79;20942;-87
2021/08/31 04:35:03;;;;;;;3.37;2.72;;;;;;;14.27;100.00;99603.23;1790559;79;20982;-88
2021/08/31 04:37:28;;;;;;;2.55;2.30;;;;;;;14.28;100.00;99606.72;1795177;79;21045;-86
2021/08/31 04:39:54;;;;;;;3.37;2.47;;;;;;;14.27;100.00;99603.73;1792459;79;20977;-88
2021/08/31 04:42:20;;;;;;;3.30;3.00;;;;;;;14.26;100.00;99605.55;1806706;79;21480;-89
2021/08/31 04:44:46;;;;;;;2.60;1.90;;;;;;;14.26;100.00;99604.73;1806330;78;20966;-87
2021/08/31 04:47:17;;;;;;;3.00;2.60;;;;;;;14.26;100.00;99606.05;1809122;79;21504;-88
2021/08/31 04:49:44;;;;;;;2.27;2.08;;;;;;;14.25;100.00;99612.36;1806835;79;21013;-88
2021/08/31 04:52:10;;;;;;;2.95;2.35;;;;;;;14.26;100.00;99607.38;1809239;78;21484;-89
2021/08/31 04:54:36;;;;;;;3.47;3.02;;;;;;;14.27;100.00;99611.69;1809357;79;20978;-88
2021/08/31 04:57:03;;;;;;;2.35;2.15;;;;;;;14.28;100.00;99612.02;1809184;79;21048;-88
2021/08/31 04:59:29;;;;;;;2.25;2.00;;;;;;;14.28;100.00;99606.72;1809418;79;21471;-88
2021/08/31 05:01:55;;;;;;;2.83;2.15;;;;;;;14.28;100.00;99604.06;1809294;79;21069;-87
2021/08/31 05:04:21;;;;;;;2.95;2.25;;;;;;;14.29;100.00;99609.73;1809277;79;20986;-86
2021/08/31 05:06:47;;;;;;;3.08;1.95;;;;;;;14.29;100.00;99611.06;1809212;79;21018;-89
2021/08/31 05:09:14;;;;;;;2.62;1.92;;;;;;;14.30;100.00;99606.08;1805270;79;21054;-87
2021/08/31 05:11:40;;;;;;;3.50;1.55;;;;;;;14.31;100.00;99612.58;1809075;79;20970;-87
2021/08/31 05:14:06;;;;;;;2.60;2.40;;;;;;;14.34;100.00;99610.09;1809184;79;21029;-88
2021/08/31 05:16:33;;;;;;;3.05;1.85;;;;;;;14.35;100.00;99608.30;1809191;78;21605;-85
2021/08/31 05:19:00;;;;;;;2.20;1.52;;;;;;;14.36;100.00;99608.62;1792624;78;20989;-87
2021/08/31 05:21:26;;;;;;;4.78;1.55;;;;;;;14.37;100.00;99616.92;1776905;81;20997;-84
2021/08/31 05:23:52;;;;;;;1.70;1.40;;;;;;;14.37;100.00;99622.23;1783715;79;20979;-86
2021/08/31 05:26:18;;;;;;;1.80;1.40;;;;;;;14.36;100.00;99614.77;1782102;80;21007;-87
2021/08/31 05:28:44;;;;;;;2.98;1.20;;;;;;;14.35;100.00;99614.44;1782096;80;21022;-88
2021/08/31 05:31:11;;;;;;;1.80;1.65;;;;;;;14.37;100.00;99616.42;1782197;80;21073;-87
2021/08/31 05:33:37;;;;;;;5.50;1.72;;;;;;;14.36;100.00;99619.24;1782032;80;21446;-85
2021/08/31 05:36:03;;;;;;;1.80;1.45;;;;;;;14.36;100.00;99613.44;1781850;80;21010;-82
2021/08/31 05:38:29;;;;;;;1.95;1.60;;;;;;;14.36;100.00;99611.28;1781961;80;21478;-85
2021/08/31 05:40:55;;;;;;;2.10;1.62;;;;;;;14.36;100.00;99619.24;1782185;80;20987;-85
2021/08/31 05:43:21;;;;;;;2.35;1.98;;;;;;;14.35;100.00;99614.44;1782036;80;21470;-86
2021/08/31 05:45:47;;;;;;;2.30;2.02;;;;;;;14.37;100.00;99618.25;1782137;80;21011;-82
2021/08/31 05:48:13;;;;;;;2.12;1.92;;;;;;;14.37;100.00;99623.05;1781921;80;21018;-86
2021/08/31 05:50:39;;;;;;;2.62;2.37;;;;;;;14.38;100.00;99620.77;1779050;80;20993;-85
2021/08/31 05:53:05;;;;;;;4.10;3.70;;;;;;;14.39;100.00;99632.20;1777452;80;21441;-87
2021/08/31 05:55:31;;;;;;;5.25;4.75;;;;;;;14.39;100.00;99626.41;1777482;80;21501;-87
2021/08/31 05:57:57;;;;;;;4.70;3.98;;;;;;;14.40;100.00;99628.06;1777365;80;21065;-84
2021/08/31 06:00:23;;;;;;;4.12;2.70;;;;;;;14.41;100.00;99633.73;1777361;81;21064;-86
2021/08/31 06:02:49;;;;;;;3.12;2.65;;;;;;;14.42;100.00;99631.41;1777452;80;20977;-87
2021/08/31 06:05:15;;;;;;;3.55;2.45;;;;;;;14.42;100.00;99632.73;1777646;80;21017;-86
2021/08/31 06:07:42;;;;;;;4.15;2.27;;;;;;;14.43;100.00;99634.39;1777374;81;21021;-87
2021/08/31 06:10:10;;;;;;;3.47;2.70;;;;;;;14.44;100.00;99641.36;1777445;80;21021;-86
2021/08/31 06:12:36;;;;;;;3.15;2.10;;;;;;;14.45;100.00;99638.23;1777201;81;21052;-83
2021/08/31 06:15:03;;;;;;;4.22;2.87;;;;;;;14.45;100.00;99641.72;1777616;80;21002;-86
2021/08/31 06:17:31;;;;;;;3.15;2.40;;;;;;;14.46;100.00;99644.70;1776671;79;21471;-85
2021/08/31 06:19:57;;;;;;;5.83;4.60;;;;;;;14.47;100.00;99648.19;1750635;82;21007;-84
2021/08/31 06:22:23;;;;;;;6.83;3.92;;;;;;;14.47;100.00;99652.17;1751117;82;21504;-86
2021/08/31 06:24:49;;;;;;;3.85;3.20;;;;;;;14.48;100.00;99648.55;1751267;82;21042;-87
2021/08/31 06:27:14;;;;;;;6.70;3.65;;;;;;;14.48;100.00;99645.90;1768479;79;21036;-85
2021/08/31 06:29:40;;;;;;;4.10;3.40;;;;;;;14.49;100.00;99652.37;1776847;81;20998;-85
2021/08/31 06:32:07;;;;;;;5.33;3.55;;;;;;;14.49;100.00;99642.25;1776622;80;21052;-84
2021/08/31 06:34:33;;;;;;;4.25;3.85;;;;;;;14.50;100.00;99643.44;1776884;81;21618;-85
2021/08/31 06:37:00;;;;;;;5.90;4.42;;;;;;;14.52;100.00;99644.13;1776804;81;21033;-85
2021/08/31 06:39:26;;;;;;;6.40;4.65;;;;;;;14.53;100.00;99644.96;1776569;81;21076;-84
2021/08/31 06:41:52;;;;;;;7.58;5.50;;;;;;;14.54;100.00;99639.98;1776588;81;21274;-85
2021/08/31 06:44:18;;;;;;;6.03;4.80;;;;;;;14.54;100.00;99635.53;1776956;81;21025;-86
2021/08/31 06:46:44;;;;;;;7.40;4.92;;;;;;;14.56;100.00;99644.66;1787313;79;20979;-86
2021/08/31 06:49:12;;;;;;;6.08;5.45;;;;;;;14.59;100.00;99651.48;1782273;80;20998;-86
2021/08/31 06:51:38;;;;;;;6.10;4.53;;;;;;;14.60;100.00;99657.13;1788412;79;21503;-86
2021/08/31 06:54:04;;;;;;;6.30;4.25;;;;;;;14.60;100.00;99647.84;1779536;79;20989;-86
2021/08/31 06:56:31;;;;;;;5.55;4.42;;;;;;;14.61;100.00;99653.01;1765895;79;21026;-87
2021/08/31 06:58:57;;;;;;;6.17;5.20;;;;;;;14.63;100.00;99656.83;1800939;79;21471;-83
2021/08/31 07:01:23;;;;;;;9.60;6.60;;;;;;;14.64;100.00;99655.36;1809442;79;20982;-86
2021/08/31 07:03:49;;;;;;;7.60;5.17;;;;;;;14.66;100.00;99653.86;1809336;79;20985;-86
2021/08/31 07:06:15;;;;;;;8.80;5.78;;;;;;;14.67;100.00;99647.55;1808990;79;20995;-84
2021/08/31 07:08:42;;;;;;;6.00;5.05;;;;;;;14.70;100.00;99657.87;1807600;79;20946;-86
2021/08/31 07:11:08;;;;;;;6.80;4.67;;;;;;;14.73;100.00;99661.05;1782094;80;21070;-85
2021/08/31 07:13:34;;;;;;;6.08;4.67;;;;;;;14.76;100.00;99665.23;1782072;80;21003;-86
2021/08/31 07:16:02;;;;;;;5.17;4.40;;;;;;;14.80;100.00;99666.58;1782154;80;20995;-86
2021/08/31 07:18:29;;;;;;;5.80;4.83;;;;;;;14.83;100.00;99667.59;1781948;80;21090;-86
2021/08/31 07:20:55;;;;;;;6.15;4.70;;;;;;;14.87;100.00;99670.77;1781658;79;21038;-85
2021/08/31 07:23:22;;;;;;;6.62;4.80;;;;;;;14.90;100.00;99671.80;1784394;80;21009;-84
2021/08/31 07:25:48;;;;;;;4.85;4.30;;;;;;;14.90;100.00;99670.47;1783993;80;21478;-83
2021/08/31 07:28:15;;;;;;;7.60;5.35;;;;;;;14.91;100.00;99671.66;1781852;80;21548;-85
2021/08/31 07:30:42;;;;;;;7.37;4.90;;;;;;;14.91;100.00;99667.67;1784594;80;21022;-86
2021/08/31 07:33:10;;;;;;;6.05;5.33;;;;;;;14.89;100.00;99670.97;1787137;79;21009;-86
2021/08/31 07:35:37;;;;;;;8.43;5.70;;;;;;;14.89;100.00;99671.47;1776885;81;21022;-86
2021/08/31 07:38:05;;;;;;;5.92;4.95;;;;;;;14.89;100.00;99678.94;1777553;79;21019;-83
2021/08/31 07:40:32;;;;;;;7.50;5.83;;;;;;;14.88;100.00;99677.28;1777138;80;21030;-84
2021/08/31 07:42:58;;;;;;;6.03;4.80;;;;;;;14.89;100.00;99675.45;1786887;79;20927;-84
2021/08/31 07:45:24;;;;;;;16.55;12.47;;;;;;;14.90;100.00;99679.77;1784506;80;21005;-86
2021/08/31 07:47:51;;;;;;;7.37;5.80;;;;;;;14.90;100.00;99679.77;1782992;80;20967;-86
2021/08/31 07:50:18;;;;;;;7.10;5.35;;;;;;;14.91;100.00;99680.95;1784218;80;21623;-86
2021/08/31 07:52:44;;;;;;;6.65;4.87;;;;;;;14.93;100.00;99684.77;1783756;80;21414;-86
2021/08/31 07:55:11;;;;;;;5.22;4.15;;;;;;;14.95;100.00;99685.46;1783888;80;20967;-87
2021/08/31 07:57:38;;;;;;;5.97;4.97;;;;;;;14.97;100.00;99678.16;1783451;80;21292;-88
2021/08/31 08:00:08;;;;;;;5.47;4.55;;;;;;;14.99;100.00;99684.98;1781071;80;20986;-86
2021/08/31 08:02:34;;;;;;;4.53;3.77;;;;;;;15.03;100.00;99682.02;1782040;80;21094;-86
2021/08/31 08:05:05;;;;;;;4.65;3.92;;;;;;;15.08;100.00;99686.38;1786208;79;21034;-82
2021/08/31 08:07:32;;;;;;;4.90;3.90;;;;;;;15.10;100.00;99687.05;1757956;80;20998;-81
2021/08/31 08:09:59;;;;;;;5.08;4.33;;;;;;;15.14;100.00;99692.41;1764938;80;21041;-87
2021/08/31 08:12:26;;;;;;;5.00;3.40;;;;;;;15.15;100.00;99694.06;1784235;80;21491;-86
2021/08/31 08:14:52;;;;;;;4.47;3.60;;;;;;;15.17;100.00;99686.28;1782962;80;21041;-86
2021/08/31 08:17:21;;;;;;;3.80;3.40;;;;;;;15.20;100.00;99691.76;1783097;80;20947;-84
2021/08/31 08:19:49;;;;;;;4.95;3.60;;;;;;;15.20;100.00;99693.09;1770313;79;20957;-84
2021/08/31 08:22:17;;;;;;;7.33;3.22;;;;;;;15.20;100.00;99690.43;1764375;79;21045;-85
2021/08/31 08:24:43;;;;;;;5.05;4.12;;;;;;;15.20;100.00;99696.61;1763508;79;21522;-84
2021/08/31 08:27:10;;;;;;;3.42;2.92;;;;;;;15.21;100.00;99705.41;1784342;79;21480;-85
2021/08/31 08:29:37;;;;;;;4.10;3.27;;;;;;;15.21;100.00;99705.41;1780306;79;20960;-83
2021/08/31 08:32:10;;;;;;;4.28;3.72;;;;;;;15.22;100.00;99706.56;1780450;80;21055;-83
2021/08/31 08:34:37;;;;;;;6.25;3.37;;;;;;;15.24;100.00;99705.09;1782515;80;21025;-84
2021/08/31 08:37:04;;;;;;;3.83;2.85;;;;;;;15.24;100.00;99701.94;1781527;80;21066;-86
2021/08/31 08:39:32;;;;;;;4.37;3.67;;;;;;;15.27;100.00;99711.43;1753218;82;21025;-83
2021/08/31 08:41:59;;;;;;;3.22;2.92;;;;;;;15.29;100.00;99708.10;1795516;79;21066;-85
2021/08/31 08:44:29;;;;;;;5.42;2.90;;;;;;;15.32;100.00;99711.77;1748508;81;21014;-84
2021/08/31 08:46:56;;;;;;;3.90;2.77;;;;;;;15.35;100.00;99708.81;1766149;79;21078;-86
2021/08/31 08:49:22;;;;;;;4.17;2.92;;;;;;;15.38;100.00;99717.80;1790970;79;20979;-84
2021/08/31 08:51:52;;;;;;;3.90;3.12;;;;;;;15.37;100.00;99716.64;1808073;78;20998;-84
2021/08/31 08:54:18;;;;;;;3.85;2.85;;;;;;;15.38;100.00;99716.97;1784651;79;21005;-86
2021/08/31 08:56:45;;;;;;;4.72;3.95;;;;;;;15.41;100.00;99716.16;1774896;80;21028;-86
2021/08/31 08:59:11;;;;;;;5.35;3.22;;;;;;;15.44;100.00;99718.50;1773784;80;21038;-84
2021/08/31 09:01:48;;;;;;;2.75;2.37;;;;;;;15.46;100.00;99718.33;1781538;80;21453;-87
2021/08/31 09:04:17;;;;;;;3.25;2.20;;;;;;;15.49;100.00;99721.51;1777422;80;20971;-87
2021/08/31 09:06:45;;;;;;;3.20;2.27;;;;;;;15.50;100.00;99726.36;1777696;80;21448;-85
2021/08/31 09:09:12;;;;;;;3.47;2.00;;;;;;;15.51;100.00;99728.02;1773860;80;21007;-85
2021/08/31 09:11:46;;;;;;;3.90;2.02;;;;;;;15.52;100.00;99731.50;1774870;80;21048;-86
2021/08/31 09:14:30;;;;;;;2.45;1.85;;;;;;;15.52;100.00;99738.15;1773216;80;21054;-87
2021/08/31 09:17:04;;;;;;;2.20;2.00;;;;;;;15.51;100.00;99732.50;1780090;80;20995;-87
2021/08/31 09:19:37;;;;;;;1.75;1.65;;;;;;;15.49;100.00;99724.67;1779379;79;21006;-83
2021/08/31 09:22:20;;;;;;;2.42;1.87;;;;;;;15.50;100.00;99721.04;1780607;79;21070;-84
2021/08/31 09:25:01;;;;;;;;;;;;;;;15.53;100.00;99723.86;1772562;79;21549;-85
2021/08/31 09:27:35;;;;;;;1.70;1.60;;;;;;;15.52;100.00;99727.02;1756518;80;20164;-86
2021/08/31 09:30:21;;;;;;;2.37;1.90;;;;;;;15.52;100.00;99736.32;1776302;80;21474;-85
2021/08/31 09:33:07;;;;;;;2.87;2.10;;;;;;;15.54;100.00;99741.50;1772748;80;20966;-83
2021/08/31 09:35:39;;;;;;;2.15;1.85;;;;;;;15.54;100.00;99740.16;1782214;79;21546;-85
2021/08/31 09:38:13;;;;;;;2.47;1.82;;;;;;;15.55;100.00;99743.16;1780600;79;21005;-84
2021/08/31 09:40:43;;;;;;;2.85;1.52;;;;;;;15.56;100.00;99739.49;1760339;79;21069;-87
2021/08/31 09:43:17;;;;;;;2.12;1.65;;;;;;;15.56;100.00;99742.98;1777493;79;21018;-87
2021/08/31 09:45:43;;;;;;;2.02;1.72;;;;;;;15.58;100.00;99741.02;1800668;79;21678;-85
2021/08/31 09:48:13;;;;;;;3.15;2.27;;;;;;;15.59;100.00;99741.34;1808585;79;21080;-83
2021/08/31 09:50:44;;;;;;;2.27;2.00;;;;;;;15.61;100.00;99738.54;1780754;79;20997;-84
2021/08/31 09:53:28;;;;;;;5.10;2.22;;;;;;;15.62;100.00;99742.36;1807716;79;21060;-84
2021/08/31 09:56:12;;;;;;;2.70;2.08;;;;;;;15.61;100.00;99742.03;1790677;79;22247;-85
2021/08/31 09:58:43;;;;;;;2.40;2.17;;;;;;;15.62;100.00;99743.69;1776674;81;20982;-82
2021/08/31 10:01:11;;;;;;;4.78;4.28;;;;;;;15.63;100.00;99752.49;1778215;80;21081;-83
2021/08/31 10:03:39;;;;;;;3.77;2.42;;;;;;;15.63;100.00;99750.69;1781502;80;20936;-82
2021/08/31 10:06:06;;;;;;;22.07;2.83;;;;;;;15.63;100.00;99755.16;1795624;79;20987;-82
2021/08/31 10:08:35;;;;;;;3.37;2.90;;;;;;;15.63;100.00;99756.02;1797628;79;20954;-82
2021/08/31 10:11:04;;;;;;;2.70;2.42;;;;;;;15.64;100.00;99761.66;1785256;79;21466;-82
2021/08/31 10:13:34;;;;;;;3.12;2.55;;;;;;;15.65;100.00;99766.48;1778252;80;21068;-83
2021/08/31 10:16:01;;;;;;;4.22;2.52;;;;;;;15.64;100.00;99767.48;1769124;80;21501;-82
2021/08/31 10:18:29;;;;;;;3.12;2.52;;;;;;;15.62;100.00;99766.29;1778150;80;21048;-81
2021/08/31 10:21:10;;;;;;;2.25;2.05;;;;;;;15.61;100.00;99766.47;1780893;79;20956;-83
2021/08/31 10:23:48;;;;;;;3.35;3.00;;;;;;;15.59;100.00;99765.77;1770561;80;21047;-82
2021/08/31 10:26:34;;;;;;;3.62;2.95;;;;;;;15.58;100.00;99768.11;1777169;80;21465;-82
2021/08/31 10:29:21;;;;;;;5.37;3.33;;;;;;;15.60;100.00;99763.47;1772105;80;21022;-83
2021/08/31 10:31:50;;;;;;;3.35;2.90;;;;;;;15.64;100.00;99770.14;1780760;80;20965;-84
2021/08/31 10:34:39;;;;;;;5.30;3.27;;;;;;;15.68;100.00;99768.86;1798797;79;21042;-83
2021/08/31 10:37:07;;;;;;;3.62;3.08;;;;;;;15.69;100.00;99770.52;1807647;79;21065;-83
2021/08/31 10:39:57;;;;;;;5.00;4.10;;;;;;;15.70;100.00;99770.38;1802832;79;21494;-84
2021/08/31 10:42:31;;;;;;;4.15;2.98;;;;;;;15.70;100.00;99773.53;1764279;80;20996;-85
2021/08/31 10:45:02;;;;;;;3.55;2.72;;;;;;;15.68;100.00;99778.99;1771353;79;20970;-85
2021/08/31 10:47:32;;;;;;;3.02;2.50;;;;;;;15.66;100.00;99778.34;1780724;80;21502;-85
2021/08/31 10:50:08;;;;;;;3.72;3.12;;;;;;;15.65;100.00;99779.77;1780544;80;20983;-85
2021/08/31 10:52:38;;;;;;;3.65;2.50;;;;;;;15.61;100.00;99778.43;1776184;80;21010;-87
2021/08/31 10:55:08;;;;;;;4.28;3.30;;;;;;;15.59;100.00;99779.90;1781854;80;21018;-86
2021/08/31 10:57:41;;;;;;;3.92;2.95;;;;;;;15.60;100.00;99779.43;1772721;80;21019;-86
2021/08/31 11:00:16;;;;;;;;;;;;;;;15.59;100.00;99781.73;1784040;80;21019;-85
2021/08/31 11:03:00;;;;;;;5.00;4.28;;;;;;;15.59;100.00;99784.39;1774441;79;20158;-84
2021/08/31 11:05:34;;;;;;;4.90;3.77;;;;;;;15.58;100.00;99785.39;1774910;80;21553;-84
2021/08/31 11:08:05;;;;;;;4.60;4.10;;;;;;;15.57;100.00;99783.73;1772182;79;21077;-83
2021/08/31 11:10:43;;;;;;;4.92;4.20;;;;;;;15.56;100.00;99780.71;1778535;79;21073;-83
2021/08/31 11:13:12;;;;;;;6.30;5.70;;;;;;;15.55;100.00;99776.39;1779426;80;20964;-82
2021/08/31 11:15:40;;;;;;;6.12;4.53;;;;;;;15.58;100.00;99784.06;1777853;79;21543;-83
2021/08/31 11:18:12;;;;;;;5.22;4.42;;;;;;;15.58;100.00;99781.40;1768111;79;20991;-83
2021/08/31 11:20:41;;;;;;;6.75;4.08;;;;;;;15.57;100.00;99793.87;1752362;79;21053;-83
2021/08/31 11:23:14;;;;;;;7.28;5.05;;;;;;;15.55;100.00;99790.52;1759576;79;21020;-84
2021/08/31 11:25:43;;;;;;;5.05;4.20;;;;;;;15.53;100.00;99798.30;1782066;79;21020;-84
2021/08/31 11:28:27;;;;;;;4.97;4.47;;;;;;;15.50;100.00;99792.83;1782450;80;21542;-84